createdAt,value
2019-03-08T00:03:55.054Z,9.53
2019-03-08T00:06:05.944Z,9.53
2019-03-08T00:08:16.873Z,9.59
2019-03-08T00:10:27.669Z,9.63
2019-03-08T00:12:38.598Z,9.63
2019-03-08T00:14:49.391Z,9.65
2019-03-08T00:17:00.172Z,9.64
2019-03-08T00:19:11.020Z,9.64
2019-03-08T00:21:21.798Z,9.63
2019-03-08T00:23:32.634Z,9.61
2019-03-08T00:25:43.721Z,9.59
2019-03-08T00:27:56.298Z,9.57
2019-03-08T00:30:50.657Z,9.55
2019-03-08T00:33:01.487Z,9.61
2019-03-08T00:35:12.293Z,9.59
2019-03-08T00:37:23.098Z,9.55
2019-03-08T00:39:33.948Z,9.54
2019-03-08T00:41:44.806Z,9.60
2019-03-08T00:43:57.570Z,9.61
2019-03-08T00:46:10.287Z,9.63
2019-03-08T00:48:21.231Z,9.61
2019-03-08T00:50:32.012Z,9.59
2019-03-08T00:52:42.810Z,9.65
2019-03-08T00:54:53.627Z,9.62
2019-03-08T00:57:04.560Z,9.57
2019-03-08T00:59:15.377Z,9.58
2019-03-08T01:01:26.175Z,9.67
2019-03-08T01:03:36.988Z,9.64
2019-03-08T01:05:47.805Z,9.61
2019-03-08T01:07:58.715Z,9.63
2019-03-08T01:10:51.295Z,9.68
2019-03-08T01:13:02.193Z,9.64
2019-03-08T01:15:54.656Z,9.59
2019-03-08T01:18:05.468Z,9.57
2019-03-08T01:20:57.932Z,9.56
2019-03-08T01:23:08.708Z,9.56
2019-03-08T01:25:21.486Z,9.51
2019-03-08T01:27:32.356Z,9.54
2019-03-08T01:29:43.148Z,9.56
2019-03-08T01:31:54.175Z,9.50
2019-03-08T01:34:05.075Z,9.55
2019-03-08T01:36:15.882Z,9.54
2019-03-08T01:38:26.677Z,9.54
2019-03-08T01:40:37.481Z,9.56
2019-03-08T01:42:48.410Z,9.59
2019-03-08T01:44:59.216Z,9.57
2019-03-08T01:47:10.034Z,9.59
2019-03-08T01:49:20.833Z,9.58
2019-03-08T01:51:31.651Z,9.63
2019-03-08T01:53:42.457Z,9.65
2019-03-08T01:55:55.204Z,9.66
2019-03-08T01:58:07.968Z,9.64
2019-03-08T02:01:00.435Z,9.65
2019-03-08T02:03:11.258Z,9.61
2019-03-08T02:05:22.150Z,9.63
2019-03-08T02:07:33.310Z,9.62
2019-03-08T02:09:45.679Z,9.59
2019-03-08T02:11:56.507Z,9.59
2019-03-08T02:14:09.196Z,9.59
2019-03-08T02:16:20.079Z,9.58
2019-03-08T02:18:31.131Z,9.46
2019-03-08T02:20:41.935Z,9.48
2019-03-08T02:22:52.838Z,9.46
2019-03-08T02:25:45.740Z,9.43
2019-03-08T02:27:56.604Z,9.40
2019-03-08T02:30:50.962Z,9.37
2019-03-08T02:33:01.790Z,9.32
2019-03-08T02:35:54.247Z,9.30
2019-03-08T02:38:05.192Z,9.23
2019-03-08T02:40:36.647Z,9.23
2019-03-08T02:42:47.432Z,9.24
2019-03-08T02:45:00.336Z,9.15
2019-03-08T02:47:11.155Z,9.00
2019-03-08T02:49:21.968Z,8.95
2019-03-08T02:51:32.861Z,8.94
2019-03-08T02:53:43.731Z,8.92
2019-03-08T02:55:54.527Z,8.84
2019-03-08T02:58:05.338Z,8.76
2019-03-08T03:00:57.823Z,8.76
2019-03-08T03:03:08.626Z,8.74
2019-03-08T03:05:19.467Z,8.68
2019-03-08T03:07:30.267Z,8.68
2019-03-08T03:09:41.173Z,8.70
2019-03-08T03:11:51.982Z,8.72
2019-03-08T03:14:02.896Z,8.65
2019-03-08T03:16:13.802Z,8.63
2019-03-08T03:18:24.617Z,8.67
2019-03-08T03:20:35.406Z,8.63
2019-03-08T03:22:46.259Z,8.62
2019-03-08T03:25:39.059Z,8.63
2019-03-08T03:27:49.851Z,8.63
2019-03-08T03:30:00.669Z,8.68
2019-03-08T03:32:11.467Z,8.62
2019-03-08T03:34:22.285Z,8.39
2019-03-08T03:36:33.097Z,8.19
2019-03-08T03:38:43.904Z,8.00
2019-03-08T03:43:19.031Z,7.77
2019-03-08T03:45:30.048Z,7.74
2019-03-08T03:47:40.835Z,7.56
2019-03-08T03:49:51.623Z,7.48
2019-03-08T03:52:02.434Z,7.46
2019-03-08T03:54:13.228Z,7.42
2019-03-08T03:56:24.044Z,7.44
2019-03-08T03:58:34.966Z,7.42
2019-03-08T04:00:45.859Z,7.36
2019-03-08T04:02:56.688Z,7.29
2019-03-08T04:07:46.472Z,7.23
2019-03-08T04:09:57.363Z,7.21
2019-03-08T04:12:08.177Z,7.20
2019-03-08T04:14:18.975Z,7.20
2019-03-08T04:16:29.802Z,7.15
2019-03-08T04:18:40.697Z,7.10
2019-03-08T04:20:51.595Z,7.21
2019-03-08T04:23:02.506Z,7.20
2019-03-08T04:25:13.504Z,7.16
2019-03-08T04:27:24.317Z,7.14
2019-03-08T04:29:35.122Z,7.17
2019-03-08T04:31:45.916Z,7.19
2019-03-08T04:33:56.714Z,7.23
2019-03-08T04:36:07.513Z,7.25
2019-03-08T04:38:18.339Z,7.21
2019-03-08T04:40:29.137Z,7.23
2019-03-08T04:42:40.370Z,7.21
2019-03-08T04:44:51.134Z,7.19
2019-03-08T04:47:01.942Z,7.20
2019-03-08T04:49:12.753Z,7.15
2019-03-08T04:51:23.544Z,7.13
2019-03-08T04:53:34.364Z,7.18
2019-03-08T04:55:45.161Z,7.20
2019-03-08T04:57:55.980Z,7.24
2019-03-08T05:00:26.663Z,7.30
2019-03-08T05:02:37.475Z,7.35
2019-03-08T05:04:48.301Z,7.31
2019-03-08T05:06:59.078Z,7.26
2019-03-08T05:09:09.889Z,7.26
2019-03-08T05:11:20.713Z,7.33
2019-03-08T05:13:33.427Z,7.33
2019-03-08T05:15:44.222Z,7.34
2019-03-08T05:17:55.027Z,7.27
2019-03-08T05:20:47.479Z,7.22
2019-03-08T05:22:58.275Z,7.14
2019-03-08T05:25:50.761Z,7.15
2019-03-08T05:28:01.560Z,7.17
2019-03-08T05:30:32.248Z,7.10
2019-03-08T05:32:43.140Z,7.16
2019-03-08T05:34:53.965Z,7.07
2019-03-08T05:37:04.765Z,7.03
2019-03-08T05:39:57.230Z,7.06
2019-03-08T05:42:08.322Z,7.15
2019-03-08T05:44:19.152Z,7.09
2019-03-08T05:46:29.950Z,7.06
2019-03-08T05:48:40.737Z,7.08
2019-03-08T05:50:51.588Z,7.10
2019-03-08T05:53:02.485Z,7.10
2019-03-08T05:55:13.343Z,7.10
2019-03-08T05:57:24.140Z,7.09
2019-03-08T05:59:35.040Z,7.12
2019-03-08T06:01:45.930Z,7.11
2019-03-08T06:03:56.733Z,7.15
2019-03-08T06:06:09.464Z,7.13
2019-03-08T06:08:20.265Z,7.15
2019-03-08T06:10:50.951Z,7.22
2019-03-08T06:13:43.601Z,7.24
2019-03-08T06:15:54.553Z,7.27
2019-03-08T06:18:05.376Z,7.58
2019-03-08T06:20:16.183Z,7.82
2019-03-08T06:22:27.014Z,8.01
2019-03-08T06:24:37.815Z,8.10
2019-03-08T06:26:50.586Z,8.35
2019-03-08T06:29:01.319Z,8.25
2019-03-08T06:31:12.155Z,8.15
2019-03-08T06:33:22.946Z,8.06
2019-03-08T06:35:33.734Z,8.04
2019-03-08T06:37:44.554Z,7.92
2019-03-08T06:39:55.395Z,7.87
2019-03-08T06:42:06.219Z,7.85
2019-03-08T06:44:17.090Z,7.82
2019-03-08T06:46:27.922Z,7.82
2019-03-08T06:48:38.855Z,7.89
2019-03-08T06:50:49.663Z,7.90
2019-03-08T06:53:00.509Z,7.97
2019-03-08T06:55:31.204Z,8.20
2019-03-08T06:57:42.272Z,8.20
2019-03-08T07:04:44.361Z,8.56
2019-03-08T07:06:57.148Z,8.54
2019-03-08T07:09:49.633Z,8.59
2019-03-08T07:12:00.441Z,8.57
2019-03-08T07:14:11.273Z,8.57
2019-03-08T07:16:22.060Z,8.61
2019-03-08T07:18:32.902Z,8.58
2019-03-08T07:21:05.619Z,8.60
2019-03-08T07:25:58.679Z,8.63
2019-03-08T07:28:29.367Z,8.59
2019-03-08T07:31:00.051Z,8.55
2019-03-08T07:35:49.702Z,8.90
2019-03-08T07:43:11.516Z,8.88
2019-03-08T07:45:44.265Z,8.85
2019-03-08T07:48:14.842Z,8.81
2019-03-08T07:53:04.398Z,8.70
2019-03-08T07:55:35.097Z,8.74
2019-03-08T07:58:05.780Z,8.79
2019-03-08T08:00:36.503Z,8.76
2019-03-08T08:07:58.326Z,9.91
2019-03-08T08:10:50.811Z,10.04
2019-03-08T08:15:53.860Z,10.29
2019-03-08T08:20:57.014Z,10.19
2019-03-08T08:23:34.052Z,10.44
2019-03-08T08:26:00.405Z,10.76
2019-03-08T08:31:03.563Z,11.05
2019-03-08T08:33:34.235Z,11.31
2019-03-08T08:36:04.958Z,11.37
2019-03-08T08:38:35.649Z,11.80
2019-03-08T08:41:06.327Z,11.93
2019-03-08T08:45:55.795Z,11.68
2019-03-08T08:50:48.684Z,11.36
2019-03-08T08:53:19.411Z,11.18
2019-03-08T08:55:50.242Z,10.88
2019-03-08T08:58:20.955Z,10.79
2019-03-08T09:00:51.666Z,10.70
2019-03-08T09:03:22.341Z,10.62
2019-03-08T09:05:53.045Z,10.58
2019-03-08T09:08:24.044Z,10.47
2019-03-08T09:10:54.757Z,10.46
2019-03-08T09:13:25.470Z,10.53
2019-03-08T09:18:28.585Z,10.66
2019-03-08T09:20:59.578Z,10.77
2019-03-08T09:23:30.296Z,10.95
2019-03-08T09:28:33.352Z,11.38
2019-03-08T09:31:04.034Z,11.50
2019-03-08T09:33:34.919Z,11.51
2019-03-08T09:36:05.614Z,11.70
2019-03-08T09:38:36.306Z,11.96
2019-03-08T09:41:06.986Z,12.49
2019-03-08T09:43:37.780Z,12.59
2019-03-08T09:46:08.657Z,12.54
2019-03-08T09:48:39.431Z,12.49
2019-03-08T09:51:10.092Z,12.55
2019-03-08T09:56:13.130Z,12.34
2019-03-08T09:58:43.998Z,12.53
2019-03-08T10:01:16.831Z,12.72
2019-03-08T10:03:47.315Z,13.33
2019-03-08T10:06:18.020Z,13.59
2019-03-08T10:11:21.080Z,13.32
2019-03-08T10:13:51.743Z,13.37
2019-03-08T10:18:41.351Z,14.10
2019-03-08T10:21:12.062Z,13.82
2019-03-08T10:23:42.836Z,13.40
2019-03-08T10:26:13.558Z,13.32
2019-03-08T10:28:44.245Z,12.97
2019-03-08T10:31:14.928Z,12.77
2019-03-08T10:33:46.739Z,12.66
2019-03-08T10:40:55.434Z,13.49
2019-03-08T10:43:26.137Z,13.95
2019-03-08T10:46:02.638Z,14.03
2019-03-08T10:50:51.796Z,14.38
2019-03-08T10:56:03.344Z,14.16
2019-03-08T10:58:34.039Z,14.18
2019-03-08T11:03:37.130Z,13.73
2019-03-08T11:06:08.106Z,13.23
2019-03-08T11:08:38.791Z,13.04
2019-03-08T11:11:09.468Z,12.92
2019-03-08T11:13:43.304Z,12.70
2019-03-08T11:16:12.734Z,12.50
2019-03-08T11:18:43.528Z,12.44
2019-03-08T11:21:15.066Z,12.41
2019-03-08T11:23:45.890Z,12.28
2019-03-08T11:28:48.931Z,12.02
2019-03-08T11:36:14.577Z,11.96
2019-03-08T11:45:42.110Z,11.72
2019-03-08T11:48:12.810Z,11.70
2019-03-08T11:55:27.858Z,11.68
2019-03-08T12:00:53.267Z,11.61
2019-03-08T12:03:24.100Z,11.53
2019-03-08T12:05:54.784Z,11.51
2019-03-08T12:08:25.455Z,11.59
2019-03-08T12:10:56.167Z,11.67
2019-03-08T12:13:27.052Z,11.63
2019-03-08T12:15:57.749Z,11.70
2019-03-08T12:18:28.446Z,11.70
2019-03-08T12:20:59.163Z,11.66
2019-03-08T12:23:29.856Z,11.69
2019-03-08T12:28:23.191Z,11.90
2019-03-08T12:30:54.038Z,11.96
2019-03-08T12:33:24.722Z,12.01
2019-03-08T12:38:14.367Z,12.22
2019-03-08T12:43:17.408Z,12.43
2019-03-08T12:45:48.263Z,12.45
2019-03-08T12:48:23.823Z,12.45
2019-03-08T12:53:23.884Z,12.35
2019-03-08T12:58:26.924Z,12.56
2019-03-08T13:00:57.725Z,12.65
2019-03-08T13:03:28.512Z,12.78
2019-03-08T13:05:59.277Z,12.87
2019-03-08T13:08:29.983Z,12.89
2019-03-08T13:10:40.899Z,12.88
2019-03-08T13:12:51.723Z,12.85
2019-03-08T13:15:44.183Z,12.76
2019-03-08T13:17:55.004Z,12.68
2019-03-08T13:20:47.474Z,12.62
2019-03-08T13:22:58.415Z,12.49
2019-03-08T13:25:09.408Z,12.30
2019-03-08T13:27:22.117Z,12.16
2019-03-08T13:29:33.041Z,12.05
2019-03-08T13:31:43.981Z,11.95
2019-03-08T13:33:54.810Z,11.91
2019-03-08T13:36:47.254Z,11.80
2019-03-08T13:38:58.085Z,11.77
2019-03-08T13:41:08.880Z,11.81
2019-03-08T13:43:19.873Z,11.80
2019-03-08T13:45:30.713Z,11.85
2019-03-08T13:47:41.561Z,11.87
2019-03-08T13:49:52.436Z,11.86
2019-03-08T13:52:03.250Z,11.75
2019-03-08T13:54:14.087Z,11.64
2019-03-08T13:56:24.884Z,11.47
2019-03-08T13:58:35.692Z,11.40
2019-03-08T14:00:46.549Z,11.40
2019-03-08T14:02:57.360Z,11.20
2019-03-08T14:05:08.598Z,11.17
2019-03-08T14:07:21.315Z,11.19
2019-03-08T14:09:32.143Z,11.18
2019-03-08T14:11:43.091Z,11.09
2019-03-08T14:13:53.913Z,10.94
2019-03-08T14:16:04.725Z,10.91
2019-03-08T14:18:15.542Z,10.87
2019-03-08T14:21:08.008Z,10.75
2019-03-08T14:23:19.023Z,10.82
2019-03-08T14:25:29.847Z,10.83
2019-03-08T14:27:40.667Z,10.79
2019-03-08T14:30:11.363Z,10.79
2019-03-08T14:34:40.934Z,10.89
2019-03-08T14:36:51.741Z,10.84
2019-03-08T14:39:45.517Z,10.69
2019-03-08T14:42:16.873Z,10.67
2019-03-08T14:44:47.546Z,10.67
2019-03-08T14:49:19.339Z,10.68
2019-03-08T14:51:29.856Z,10.70
2019-03-08T14:53:40.672Z,10.79
2019-03-08T14:55:55.161Z,10.79
2019-03-08T14:58:04.205Z,10.85
2019-03-08T15:00:56.662Z,10.96
2019-03-08T15:03:07.522Z,11.08
2019-03-08T15:05:19.079Z,11.07
2019-03-08T15:07:31.139Z,11.09
2019-03-08T15:09:41.979Z,11.14
2019-03-08T15:11:55.981Z,11.22
2019-03-08T15:14:05.622Z,11.26
2019-03-08T15:16:16.442Z,11.29
2019-03-08T15:18:29.497Z,11.27
2019-03-08T15:20:39.967Z,11.25
2019-03-08T15:22:50.780Z,11.29
2019-03-08T15:27:40.215Z,11.31
2019-03-08T15:29:54.499Z,11.22
2019-03-08T15:32:03.857Z,11.21
2019-03-08T15:34:21.484Z,11.24
2019-03-08T15:36:27.400Z,11.29
2019-03-08T15:38:38.216Z,11.31
2019-03-08T15:40:49.130Z,11.43
2019-03-08T15:42:59.920Z,11.46
2019-03-08T15:45:54.303Z,11.58
2019-03-08T15:48:05.171Z,11.59
2019-03-08T15:50:59.499Z,11.71
2019-03-08T15:53:10.375Z,11.77
2019-03-08T15:55:21.221Z,11.87
2019-03-08T15:57:32.020Z,11.88
2019-03-08T15:59:42.905Z,11.91
2019-03-08T16:01:53.685Z,11.95
2019-03-08T16:04:08.125Z,11.94
2019-03-08T16:06:19.523Z,11.95
2019-03-08T16:08:30.098Z,11.91
2019-03-08T16:10:40.944Z,11.80
2019-03-08T16:12:51.753Z,11.84
2019-03-08T16:15:44.232Z,11.81
2019-03-08T16:17:55.252Z,11.81
2019-03-08T16:20:47.700Z,11.78
2019-03-08T16:22:58.535Z,11.73
2019-03-08T16:25:51.011Z,11.69
2019-03-08T16:28:01.826Z,11.70
2019-03-08T16:30:54.308Z,11.54
2019-03-08T16:33:44.947Z,11.48
2019-03-08T16:36:37.452Z,11.41
2019-03-08T16:39:08.225Z,11.31
2019-03-08T16:41:39.078Z,11.26
2019-03-08T16:53:41.980Z,10.98
2019-03-08T16:56:12.475Z,10.85
2019-03-08T16:58:43.208Z,10.72
2019-03-08T17:01:13.916Z,10.65
2019-03-08T17:03:44.708Z,10.57
2019-03-08T17:08:47.767Z,10.38
2019-03-08T17:11:18.432Z,10.33
2019-03-08T17:13:49.218Z,10.30
2019-03-08T17:16:19.940Z,10.26
2019-03-08T17:18:50.676Z,10.22
2019-03-08T17:21:21.355Z,10.16
2019-03-08T17:23:52.064Z,10.08
2019-03-08T17:28:55.263Z,10.03
2019-03-08T17:31:25.943Z,9.97
2019-03-08T17:36:15.644Z,9.90
2019-03-08T17:38:46.565Z,10.30
2019-03-08T17:41:17.338Z,10.55
2019-03-08T17:43:48.016Z,10.46
2019-03-08T17:48:51.079Z,10.03
2019-03-08T17:51:21.790Z,9.76
2019-03-08T18:01:02.297Z,9.04
2019-03-08T18:03:33.002Z,8.89
2019-03-08T18:08:28.119Z,8.56
2019-03-08T18:13:17.232Z,8.54
2019-03-08T18:15:48.138Z,8.51
2019-03-08T18:18:18.846Z,8.50
2019-03-08T18:20:49.555Z,8.43
2019-03-08T18:23:20.231Z,8.35
2019-03-08T18:28:13.250Z,8.02
2019-03-08T18:30:43.981Z,7.90
2019-03-08T18:35:47.067Z,7.74
2019-03-08T18:38:17.755Z,7.72
2019-03-08T18:40:48.497Z,7.64
2019-03-08T18:45:51.951Z,7.57
2019-03-08T18:48:22.643Z,7.52
2019-03-08T18:53:11.754Z,7.54
2019-03-08T19:00:33.630Z,7.54
2019-03-08T19:03:04.375Z,7.60
2019-03-08T19:05:35.100Z,7.53
2019-03-08T19:08:05.812Z,7.43
2019-03-08T19:10:36.512Z,7.38
2019-03-08T19:13:07.225Z,7.33
2019-03-08T19:15:37.904Z,7.28
2019-03-08T19:20:49.042Z,7.19
2019-03-08T19:23:19.749Z,7.21
2019-03-08T19:28:22.831Z,7.31
2019-03-08T19:30:53.616Z,7.37
2019-03-08T19:35:43.092Z,7.47
2019-03-08T19:38:13.846Z,7.52
2019-03-08T19:43:16.885Z,7.56
2019-03-08T19:45:47.695Z,7.59
2019-03-08T19:48:18.500Z,7.56
2019-03-08T19:50:49.213Z,7.52
2019-03-08T19:53:19.991Z,7.43
2019-03-08T19:55:50.682Z,7.46
2019-03-08T20:03:12.635Z,7.33
2019-03-08T20:05:43.371Z,7.28
2019-03-08T20:08:14.247Z,7.23
2019-03-08T20:13:03.516Z,7.26
2019-03-08T20:15:34.250Z,7.23
2019-03-08T20:18:04.938Z,7.25
2019-03-08T20:22:54.602Z,7.23
2019-03-08T20:25:47.090Z,7.22
2019-03-08T20:28:17.798Z,7.23
2019-03-08T20:30:48.901Z,7.24
2019-03-08T20:33:19.581Z,7.24
2019-03-08T20:38:13.117Z,7.24
2019-03-08T20:40:43.865Z,7.17
2019-03-08T20:45:46.958Z,7.33
2019-03-08T20:47:57.878Z,7.34
2019-03-08T20:50:50.344Z,7.36
2019-03-08T20:53:01.166Z,7.33
2019-03-08T20:55:11.999Z,7.32
2019-03-08T20:57:22.889Z,7.29
2019-03-08T20:59:33.674Z,7.27
2019-03-08T21:01:44.536Z,7.29
2019-03-08T21:03:55.450Z,7.37
2019-03-08T21:06:06.352Z,7.39
2019-03-08T21:08:17.200Z,7.50
2019-03-08T21:10:28.002Z,7.62
2019-03-08T21:12:38.861Z,7.70
2019-03-08T21:14:49.652Z,7.76
2019-03-08T21:17:00.806Z,7.85
2019-03-08T21:19:11.620Z,7.95
2019-03-08T21:21:22.436Z,7.96
2019-03-08T21:23:33.281Z,8.02
2019-03-08T21:25:44.086Z,8.05
2019-03-08T21:27:55.048Z,8.07
2019-03-08T21:30:47.523Z,8.06
2019-03-08T21:32:58.372Z,8.08
2019-03-08T21:35:09.590Z,8.12
2019-03-08T21:37:20.375Z,8.14
2019-03-08T21:39:31.249Z,8.17
2019-03-08T21:41:42.048Z,8.22
2019-03-08T21:44:12.861Z,8.19
2019-03-08T21:46:23.662Z,8.22
2019-03-08T21:48:34.497Z,8.27
2019-03-08T21:50:45.310Z,8.29
2019-03-08T21:52:56.249Z,8.27
2019-03-08T21:55:07.176Z,8.30
2019-03-08T21:57:17.970Z,8.30
2019-03-08T21:59:28.801Z,8.33
2019-03-08T22:01:39.632Z,8.33
2019-03-08T22:08:31.778Z,8.43
2019-03-08T22:13:14.974Z,8.44
2019-03-08T22:15:25.828Z,8.45
2019-03-08T22:17:36.742Z,8.46
2019-03-08T22:19:47.579Z,8.45
2019-03-08T22:21:58.440Z,8.48
2019-03-08T22:24:13.311Z,8.48
2019-03-08T22:26:22.034Z,8.45
2019-03-08T22:28:32.928Z,8.47
2019-03-08T22:30:43.856Z,8.50
2019-03-08T22:32:54.656Z,8.48
2019-03-08T22:35:05.491Z,8.45
2019-03-08T22:37:16.303Z,8.47
2019-03-08T22:39:27.123Z,8.49
2019-03-08T22:41:37.938Z,8.53
2019-03-08T22:43:48.728Z,8.50
2019-03-08T22:45:59.574Z,8.51
2019-03-08T22:48:10.389Z,8.51
2019-03-08T22:50:21.214Z,8.50
2019-03-08T22:52:32.039Z,8.49
2019-03-08T22:54:42.847Z,8.52
2019-03-08T22:56:55.591Z,8.47
2019-03-08T22:59:08.417Z,8.46
2019-03-08T23:02:00.925Z,8.44
2019-03-08T23:04:11.837Z,8.44
2019-03-08T23:06:22.621Z,8.46
2019-03-08T23:08:33.459Z,8.46
2019-03-08T23:10:44.282Z,8.45
2019-03-08T23:12:55.111Z,8.48
2019-03-08T23:15:47.554Z,8.41
2019-03-08T23:17:58.379Z,8.43
2019-03-08T23:20:09.184Z,8.46
2019-03-08T23:22:20.012Z,8.44
2019-03-08T23:24:30.835Z,8.38
2019-03-08T23:29:33.904Z,8.43
2019-03-08T23:32:04.598Z,8.39
2019-03-08T23:34:15.591Z,8.39
2019-03-08T23:36:26.435Z,8.42
2019-03-08T23:38:37.236Z,8.40
2019-03-08T23:40:48.059Z,8.39
2019-03-08T23:42:58.863Z,8.42
2019-03-08T23:45:51.385Z,8.42
2019-03-08T23:48:02.209Z,8.43
2019-03-08T23:50:13.103Z,8.42
2019-03-08T23:52:25.829Z,8.42
2019-03-08T23:54:38.564Z,8.41
2019-03-08T23:56:49.432Z,8.45
2019-03-08T23:59:00.267Z,8.46
